^^
Station Historical Data
Daily Summary for February 14, 2018 Units:  Both    English   Metric
« Previous Day
Next Day »
Daily Weekly Monthly Yearly Custom
  High: Low: Average:
Temperature: TemperatureF °F /  -17.8 °C 63.3 °F /  17.4 °C 72.3 °F /  22.4 °C
Dew Point: DewpointF °F /  -17.8 °C 53.4 °F /  11.9 °C 57.9 °F /  14.4 °C
Humidity: Humidity% 31% 63%
Wind Speed: WindSpeedMPHmph /  0km/h - 1.5mph /  2.4km/h
Wind Gust: WindSpeedGustMPHmph /  0km/h - -
Wind- - SSE
Pressure: PressureIn in /  0 hPa 29.70 in /  1005.6 hPa -
Precipitation: 0.09 in /  2.29 mm    
Historical Graphs
 
 
Tabular Data for February 14, 2018
Time Temperature Dew Point Pressure Wind Wind Speed Wind Gust Humidity Rainfall Rate (Hourly) solar Conditions
TemperatureF °F /  -17.8 °C DewpointF °F /  -17.8 °C PressureInin /  0hPa Calm     Humidity% HourlyPrecipInin /  0mm SolarRadiationWatts/m^2 W/m2 Conditions
00:01 65.8 °F /  18.8 °C 58.8 °F /  14.9 °C 29.84in /  1010.4hPa Calm     78% 0.00in /  0mm 0.0 W/m2
00:06 65.8 °F /  18.8 °C 58.8 °F /  14.9 °C 29.85in /  1010.7hPa Calm   2.0mph /  3.2km/h 78% 0.00in /  0mm 0.0 W/m2
00:11 65.8 °F /  18.8 °C 58.8 °F /  14.9 °C 29.85in /  1010.7hPa Calm   2.0mph /  3.2km/h 78% 0.00in /  0mm 0.0 W/m2
00:16 65.8 °F /  18.8 °C 58.8 °F /  14.9 °C 29.85in /  1010.7hPa ENE 0.9mph /  1.4km/h 4.0mph /  6.4km/h 78% 0.00in /  0mm 0.0 W/m2
00:21 65.8 °F /  18.8 °C 58.8 °F /  14.9 °C 29.85in /  1010.7hPa NE 2.9mph /  4.7km/h 4.0mph /  6.4km/h 78% 0.00in /  0mm 0.0 W/m2
00:26 65.8 °F /  18.8 °C 58.8 °F /  14.9 °C 29.85in /  1010.7hPa Calm   4.0mph /  6.4km/h 78% 0.00in /  0mm 0.0 W/m2
00:32 65.8 °F /  18.8 °C 58.5 °F /  14.7 °C 29.85in /  1010.7hPa ENE 2.9mph /  4.7km/h 3.0mph /  4.8km/h 77% 0.00in /  0mm 0.0 W/m2
00:37 66.0 °F /  18.9 °C 58.6 °F /  14.8 °C 29.85in /  1010.7hPa Calm   3.0mph /  4.8km/h 77% 0.00in /  0mm 0.0 W/m2
00:42 66.0 °F /  18.9 °C 58.6 °F /  14.8 °C 29.85in /  1010.7hPa SSE 2.0mph /  3.2km/h 3.0mph /  4.8km/h 77% 0.00in /  0mm 0.0 W/m2
00:47 66.0 °F /  18.9 °C 58.3 °F /  14.6 °C 29.85in /  1010.7hPa Calm     76% 0.00in /  0mm 0.0 W/m2
00:52 66.2 °F /  19 °C 58.5 °F /  14.7 °C 29.84in /  1010.4hPa Calm     76% 0.00in /  0mm 0.0 W/m2
00:57 66.4 °F /  19.1 °C 58.6 °F /  14.8 °C 29.85in /  1010.7hPa Calm     76% 0.00in /  0mm 0.0 W/m2
01:02 66.4 °F /  19.1 °C 58.6 °F /  14.8 °C 29.84in /  1010.4hPa Calm   1.0mph /  1.6km/h 76% 0.00in /  0mm 0.0 W/m2
01:07 66.6 °F /  19.2 °C 58.8 °F /  14.9 °C 29.85in /  1010.7hPa Calm     76% 0.00in /  0mm 0.0 W/m2
01:13 66.6 °F /  19.2 °C 58.8 °F /  14.9 °C 29.85in /  1010.7hPa Calm   1.0mph /  1.6km/h 76% 0.00in /  0mm 0.0 W/m2
01:18 66.6 °F /  19.2 °C 58.8 °F /  14.9 °C 29.85in /  1010.7hPa Calm     76% 0.00in /  0mm 0.0 W/m2
01:23 66.7 °F /  19.3 °C 58.6 °F /  14.8 °C 29.84in /  1010.4hPa Calm   1.0mph /  1.6km/h 75% 0.00in /  0mm 0.0 W/m2
01:28 66.7 °F /  19.3 °C 58.6 °F /  14.8 °C 29.84in /  1010.4hPa SE 0.9mph /  1.4km/h 2.0mph /  3.2km/h 75% 0.00in /  0mm 0.0 W/m2
01:33 66.7 °F /  19.3 °C 58.6 °F /  14.8 °C 29.84in /  1010.4hPa Calm   1.0mph /  1.6km/h 75% 0.00in /  0mm 0.0 W/m2
01:38 66.7 °F /  19.3 °C 58.6 °F /  14.8 °C 29.84in /  1010.4hPa Calm     75% 0.00in /  0mm 0.0 W/m2
01:43 66.9 °F /  19.4 °C 59.2 °F /  15.1 °C 29.84in /  1010.4hPa Calm   1.0mph /  1.6km/h 76% 0.00in /  0mm 0.0 W/m2
01:48 66.9 °F /  19.4 °C 58.8 °F /  14.9 °C 29.83in /  1010hPa Calm   1.0mph /  1.6km/h 75% 0.00in /  0mm 0.0 W/m2
01:53 66.9 °F /  19.4 °C 58.3 °F /  14.6 °C 29.83in /  1010hPa Calm   2.0mph /  3.2km/h 74% 0.00in /  0mm 0.0 W/m2
01:58 66.9 °F /  19.4 °C 58.3 °F /  14.6 °C 29.83in /  1010hPa Calm   1.0mph /  1.6km/h 74% 0.00in /  0mm 0.0 W/m2
02:04 67.1 °F /  19.5 °C 58.5 °F /  14.7 °C 29.83in /  1010hPa Calm     74% 0.00in /  0mm 0.0 W/m2
02:09 67.1 °F /  19.5 °C 58.5 °F /  14.7 °C 29.83in /  1010hPa Calm     74% 0.00in /  0mm 0.0 W/m2
02:14 67.1 °F /  19.5 °C 58.1 °F /  14.5 °C 29.83in /  1010hPa Calm     73% 0.00in /  0mm 0.0 W/m2
02:19 67.3 °F /  19.6 °C 58.6 °F /  14.8 °C 29.82in /  1009.7hPa Calm     74% 0.00in /  0mm 0.0 W/m2
02:24 67.3 °F /  19.6 °C 58.6 °F /  14.8 °C 29.82in /  1009.7hPa Calm   1.0mph /  1.6km/h 74% 0.00in /  0mm 0.0 W/m2
02:29 67.3 °F /  19.6 °C 58.6 °F /  14.8 °C 29.82in /  1009.7hPa SE 2.0mph /  3.2km/h 2.0mph /  3.2km/h 74% 0.00in /  0mm 0.0 W/m2
02:34 67.3 °F /  19.6 °C 59.0 °F /  15 °C 29.82in /  1009.7hPa Calm   1.0mph /  1.6km/h 75% 0.00in /  0mm 0.0 W/m2
02:39 67.3 °F /  19.6 °C 58.6 °F /  14.8 °C 29.82in /  1009.7hPa Calm   2.0mph /  3.2km/h 74% 0.00in /  0mm 0.0 W/m2
02:44 67.1 °F /  19.5 °C 58.1 °F /  14.5 °C 29.82in /  1009.7hPa Calm   1.0mph /  1.6km/h 73% 0.00in /  0mm 0.0 W/m2
02:50 67.1 °F /  19.5 °C 58.5 °F /  14.7 °C 29.82in /  1009.7hPa Calm   2.0mph /  3.2km/h 74% 0.00in /  0mm 0.0 W/m2
02:55 67.3 °F /  19.6 °C 58.6 °F /  14.8 °C 29.81in /  1009.4hPa Calm   3.0mph /  4.8km/h 74% 0.00in /  0mm 0.0 W/m2
03:00 67.3 °F /  19.6 °C 58.6 °F /  14.8 °C 29.81in /  1009.4hPa Calm   1.0mph /  1.6km/h 74% 0.00in /  0mm 0.0 W/m2
03:05 67.3 °F /  19.6 °C 58.6 °F /  14.8 °C 29.81in /  1009.4hPa Calm   1.0mph /  1.6km/h 74% 0.00in /  0mm 0.0 W/m2
03:10 67.3 °F /  19.6 °C 57.9 °F /  14.4 °C 29.81in /  1009.4hPa East 0.9mph /  1.4km/h 1.0mph /  1.6km/h 72% 0.00in /  0mm 0.0 W/m2
03:15 67.5 °F /  19.7 °C 58.1 °F /  14.5 °C 29.81in /  1009.4hPa Calm     72% 0.00in /  0mm 0.0 W/m2
03:20 67.5 °F /  19.7 °C 58.5 °F /  14.7 °C 29.81in /  1009.4hPa Calm     73% 0.00in /  0mm 0.0 W/m2
03:25 67.6 °F /  19.8 °C 59.0 °F /  15 °C 29.81in /  1009.4hPa Calm   1.0mph /  1.6km/h 74% 0.00in /  0mm 0.0 W/m2
03:30 67.6 °F /  19.8 °C 58.6 °F /  14.8 °C 29.81in /  1009.4hPa Calm   2.0mph /  3.2km/h 73% 0.00in /  0mm 0.0 W/m2
03:36 67.6 °F /  19.8 °C 57.9 °F /  14.4 °C 29.81in /  1009.4hPa Calm   1.0mph /  1.6km/h 71% 0.00in /  0mm 0.0 W/m2
03:41 67.6 °F /  19.8 °C 57.9 °F /  14.4 °C 29.81in /  1009.4hPa Calm   1.0mph /  1.6km/h 71% 0.00in /  0mm 0.0 W/m2
03:46 67.8 °F /  19.9 °C 57.7 °F /  14.3 °C 29.80in /  1009hPa Calm   2.0mph /  3.2km/h 70% 0.00in /  0mm 0.0 W/m2
03:51 68.0 °F /  20 °C 57.9 °F /  14.4 °C 29.80in /  1009hPa Calm   2.0mph /  3.2km/h 70% 0.00in /  0mm 0.0 W/m2
03:56 68.2 °F /  20.1 °C 55.9 °F /  13.3 °C 29.80in /  1009hPa SSE 2.0mph /  3.2km/h 5.0mph /  8km/h 65% 0.00in /  0mm 0.0 W/m2
04:01 68.5 °F /  20.3 °C 56.3 °F /  13.5 °C 29.80in /  1009hPa Calm   1.0mph /  1.6km/h 65% 0.00in /  0mm 0.0 W/m2
04:06 68.7 °F /  20.4 °C 56.1 °F /  13.4 °C 29.80in /  1009hPa Calm   1.0mph /  1.6km/h 64% 0.00in /  0mm 0.0 W/m2
04:11 69.1 °F /  20.6 °C 58.1 °F /  14.5 °C 29.81in /  1009.4hPa NE 2.0mph /  3.2km/h 4.0mph /  6.4km/h 68% 0.00in /  0mm 0.0 W/m2
04:17 69.3 °F /  20.7 °C 60.3 °F /  15.7 °C 29.81in /  1009.4hPa ENE 2.0mph /  3.2km/h 5.0mph /  8km/h 73% 0.00in /  0mm 0.0 W/m2
04:23 69.1 °F /  20.6 °C 61.9 °F /  16.6 °C 29.81in /  1009.4hPa Calm   4.0mph /  6.4km/h 78% 0.02in /  0.51mm 0.0 W/m2
04:28 68.2 °F /  20.1 °C 61.3 °F /  16.3 °C 29.81in /  1009.4hPa Calm   5.0mph /  8km/h 79% 0.05in /  1.27mm 0.0 W/m2
04:33 67.5 °F /  19.7 °C 61.2 °F /  16.2 °C 29.81in /  1009.4hPa Calm     80% 0.06in /  1.52mm 0.0 W/m2
04:38 66.7 °F /  19.3 °C 61.0 °F /  16.1 °C 29.80in /  1009hPa NNW 2.9mph /  4.7km/h 3.0mph /  4.8km/h 82% 0.07in /  1.78mm 0.0 W/m2
04:43 66.0 °F /  18.9 °C 60.6 °F /  15.9 °C 29.80in /  1009hPa Calm     83% 0.08in /  2.03mm 0.0 W/m2
04:48 65.8 °F /  18.8 °C 61.2 °F /  16.2 °C 29.80in /  1009hPa Calm   2.0mph /  3.2km/h 85% 0.08in /  2.03mm 0.0 W/m2
04:53 65.5 °F /  18.6 °C 61.5 °F /  16.4 °C 29.80in /  1009hPa Calm     87% 0.08in /  2.03mm 0.0 W/m2
04:58 65.3 °F /  18.5 °C 61.3 °F /  16.3 °C 29.80in /  1009hPa Calm     87% 0.08in /  2.03mm 0.0 W/m2
05:03 65.1 °F /  18.4 °C 61.2 °F /  16.2 °C 29.80in /  1009hPa Calm   2.0mph /  3.2km/h 87% 0.09in /  2.29mm 0.0 W/m2
05:08 64.9 °F /  18.3 °C 61.3 °F /  16.3 °C 29.80in /  1009hPa Calm     88% 0.09in /  2.29mm 0.0 W/m2
05:14 64.9 °F /  18.3 °C 61.7 °F /  16.5 °C 29.80in /  1009hPa Calm   1.0mph /  1.6km/h 89% 0.09in /  2.29mm 0.0 W/m2
05:19 64.8 °F /  18.2 °C 61.5 °F /  16.4 °C 29.80in /  1009hPa Calm     89% 0.09in /  2.29mm 0.0 W/m2
05:24 64.6 °F /  18.1 °C 61.3 °F /  16.3 °C 29.80in /  1009hPa Calm   1.0mph /  1.6km/h 89% 0.06in /  1.52mm 0.0 W/m2
05:29 64.6 °F /  18.1 °C 61.3 °F /  16.3 °C 29.80in /  1009hPa Calm     89% 0.04in /  1.02mm 0.0 W/m2
05:34 64.4 °F /  18 °C 61.2 °F /  16.2 °C 29.80in /  1009hPa Calm     89% 0.02in /  0.51mm 0.0 W/m2
05:39 64.2 °F /  17.9 °C 61.0 °F /  16.1 °C 29.80in /  1009hPa Calm     89% 0.01in /  0.25mm 0.0 W/m2
05:44 64.2 °F /  17.9 °C 61.2 °F /  16.2 °C 29.80in /  1009hPa Calm   1.0mph /  1.6km/h 90% 0.01in /  0.25mm 0.0 W/m2
05:49 64.2 °F /  17.9 °C 61.2 °F /  16.2 °C 29.80in /  1009hPa Calm     90% 0.01in /  0.25mm 0.0 W/m2
05:55 64.0 °F /  17.8 °C 61.0 °F /  16.1 °C 29.80in /  1009hPa Calm     90% 0.01in /  0.25mm 0.0 W/m2
06:00 64.0 °F /  17.8 °C 61.0 °F /  16.1 °C 29.80in /  1009hPa Calm   1.0mph /  1.6km/h 90% 0.01in /  0.25mm 0.0 W/m2
06:05 63.9 °F /  17.7 °C 60.8 °F /  16 °C 29.80in /  1009hPa Calm   1.0mph /  1.6km/h 90% 0.00in /  0mm 0.0 W/m2
06:10 63.9 °F /  17.7 °C 60.8 °F /  16 °C 29.80in /  1009hPa Calm     90% 0.00in /  0mm 0.0 W/m2
06:15 63.7 °F /  17.6 °C 60.6 °F /  15.9 °C 29.80in /  1009hPa Calm     90% 0.00in /  0mm 0.0 W/m2
06:20 63.7 °F /  17.6 °C 60.6 °F /  15.9 °C 29.80in /  1009hPa Calm   1.0mph /  1.6km/h 90% 0.00in /  0mm 0.0 W/m2
06:25 63.5 °F /  17.5 °C 60.3 °F /  15.7 °C 29.80in /  1009hPa Calm     89% 0.00in /  0mm 0.0 W/m2
06:30 63.3 °F /  17.4 °C 60.3 °F /  15.7 °C 29.80in /  1009hPa Calm     90% 0.00in /  0mm 0.0 W/m2
06:35 63.3 °F /  17.4 °C 60.3 °F /  15.7 °C 29.80in /  1009hPa Calm     90% 0.00in /  0mm 0.0 W/m2
06:40 63.3 °F /  17.4 °C 60.3 °F /  15.7 °C 29.80in /  1009hPa Calm     90% 0.00in /  0mm 0.0 W/m2
06:46 63.3 °F /  17.4 °C 60.6 °F /  15.9 °C 29.80in /  1009hPa Calm     91% 0.00in /  0mm 5.0 W/m2
06:51 63.3 °F /  17.4 °C 60.6 °F /  15.9 °C 29.80in /  1009hPa Calm     91% 0.00in /  0mm 9.0 W/m2
06:56 63.3 °F /  17.4 °C 60.6 °F /  15.9 °C 29.81in /  1009.4hPa Calm   1.0mph /  1.6km/h 91% 0.00in /  0mm 14.0 W/m2
07:01 63.3 °F /  17.4 °C 60.6 °F /  15.9 °C 29.81in /  1009.4hPa Calm   1.0mph /  1.6km/h 91% 0.00in /  0mm 19.0 W/m2
07:06 63.3 °F /  17.4 °C 60.6 °F /  15.9 °C 29.81in /  1009.4hPa Calm   1.0mph /  1.6km/h 91% 0.00in /  0mm 25.0 W/m2
07:11 63.3 °F /  17.4 °C 60.6 °F /  15.9 °C 29.82in /  1009.7hPa Calm     91% 0.00in /  0mm 28.0 W/m2
07:16 63.5 °F /  17.5 °C 60.8 °F /  16 °C 29.82in /  1009.7hPa Calm   1.0mph /  1.6km/h 91% 0.00in /  0mm 35.0 W/m2
07:21 63.7 °F /  17.6 °C 61.0 °F /  16.1 °C 29.82in /  1009.7hPa Calm   1.0mph /  1.6km/h 91% 0.00in /  0mm 37.0 W/m2
07:26 63.7 °F /  17.6 °C 61.0 °F /  16.1 °C 29.82in /  1009.7hPa Calm   1.0mph /  1.6km/h 91% 0.00in /  0mm 40.0 W/m2
07:32 63.7 °F /  17.6 °C 60.6 °F /  15.9 °C 29.82in /  1009.7hPa Calm   1.0mph /  1.6km/h 90% 0.00in /  0mm 42.0 W/m2
07:37 63.9 °F /  17.7 °C 61.2 °F /  16.2 °C 29.82in /  1009.7hPa Calm   1.0mph /  1.6km/h 91% 0.00in /  0mm 47.0 W/m2
07:42 64.0 °F /  17.8 °C 61.3 °F /  16.3 °C 29.82in /  1009.7hPa Calm     91% 0.00in /  0mm 53.0 W/m2
07:47 64.0 °F /  17.8 °C 61.3 °F /  16.3 °C 29.82in /  1009.7hPa Calm     91% 0.00in /  0mm 58.0 W/m2
07:52 64.2 °F /  17.9 °C 61.5 °F /  16.4 °C 29.82in /  1009.7hPa Calm   1.0mph /  1.6km/h 91% 0.00in /  0mm 63.0 W/m2
07:57 64.2 °F /  17.9 °C 61.2 °F /  16.2 °C 29.82in /  1009.7hPa Calm     90% 0.00in /  0mm 76.0 W/m2
08:02 64.6 °F /  18.1 °C 61.5 °F /  16.4 °C 29.82in /  1009.7hPa Calm     90% 0.00in /  0mm 77.0 W/m2
08:07 64.6 °F /  18.1 °C 61.3 °F /  16.3 °C 29.83in /  1010hPa NNW 2.9mph /  4.7km/h 3.0mph /  4.8km/h 89% 0.00in /  0mm 65.0 W/m2
08:13 64.9 °F /  18.3 °C 61.0 °F /  16.1 °C 29.83in /  1010hPa Calm     87% 0.00in /  0mm 56.0 W/m2
08:18 65.1 °F /  18.4 °C 60.4 °F /  15.8 °C 29.83in /  1010hPa Calm   2.0mph /  3.2km/h 85% 0.00in /  0mm 54.0 W/m2
08:23 65.3 °F /  18.5 °C 60.1 °F /  15.6 °C 29.83in /  1010hPa Calm   1.0mph /  1.6km/h 83% 0.00in /  0mm 65.0 W/m2
08:28 65.5 °F /  18.6 °C 60.3 °F /  15.7 °C 29.83in /  1010hPa Calm   1.0mph /  1.6km/h 83% 0.00in /  0mm 91.0 W/m2
08:33 65.7 °F /  18.7 °C 61.0 °F /  16.1 °C 29.83in /  1010hPa Calm     85% 0.00in /  0mm 105.0 W/m2
08:38 65.8 °F /  18.8 °C 60.8 °F /  16 °C 29.84in /  1010.4hPa Calm   1.0mph /  1.6km/h 84% 0.00in /  0mm 121.0 W/m2
08:43 66.0 °F /  18.9 °C 60.1 °F /  15.6 °C 29.83in /  1010hPa Calm   1.0mph /  1.6km/h 81% 0.00in /  0mm 135.0 W/m2
08:48 66.7 °F /  19.3 °C 60.4 °F /  15.8 °C 29.83in /  1010hPa NW 0.9mph /  1.4km/h 2.0mph /  3.2km/h 80% 0.00in /  0mm 343.0 W/m2
08:53 67.5 °F /  19.7 °C 60.8 °F /  16 °C 29.84in /  1010.4hPa ENE 2.0mph /  3.2km/h 3.0mph /  4.8km/h 79% 0.00in /  0mm 439.0 W/m2
08:58 68.4 °F /  20.2 °C 61.2 °F /  16.2 °C 29.84in /  1010.4hPa ENE 4.0mph /  6.4km/h 6.0mph /  9.7km/h 78% 0.00in /  0mm 142.0 W/m2
09:04 68.7 °F /  20.4 °C 60.8 °F /  16 °C 29.84in /  1010.4hPa NNE 2.9mph /  4.7km/h 4.0mph /  6.4km/h 76% 0.00in /  0mm 236.0 W/m2
09:09 69.3 °F /  20.7 °C 60.6 °F /  15.9 °C 29.84in /  1010.4hPa ENE 2.9mph /  4.7km/h 6.0mph /  9.7km/h 74% 0.00in /  0mm 193.0 W/m2
09:14 69.6 °F /  20.9 °C 59.7 °F /  15.4 °C 29.84in /  1010.4hPa East 4.9mph /  7.9km/h 6.0mph /  9.7km/h 71% 0.00in /  0mm 262.0 W/m2
09:19 70.2 °F /  21.2 °C 59.5 °F /  15.3 °C 29.83in /  1010hPa Calm   6.0mph /  9.7km/h 69% 0.00in /  0mm 476.0 W/m2
09:24 71.2 °F /  21.8 °C 59.7 °F /  15.4 °C 29.84in /  1010.4hPa ENE 4.0mph /  6.4km/h 4.0mph /  6.4km/h 67% 0.00in /  0mm 666.0 W/m2
09:29 72.7 °F /  22.6 °C 59.7 °F /  15.4 °C 29.84in /  1010.4hPa ENE 4.9mph /  7.9km/h 8.0mph /  12.9km/h 64% 0.00in /  0mm 633.0 W/m2
09:34 73.8 °F /  23.2 °C 59.0 °F /  15 °C 29.84in /  1010.4hPa Calm   4.0mph /  6.4km/h 60% 0.00in /  0mm 636.0 W/m2
09:39 74.8 °F /  23.8 °C 60.1 °F /  15.6 °C 29.83in /  1010hPa NNE 2.9mph /  4.7km/h 3.0mph /  4.8km/h 60% 0.00in /  0mm 659.0 W/m2
09:44 75.7 °F /  24.3 °C 58.5 °F /  14.7 °C 29.84in /  1010.4hPa ESE 6.9mph /  11.1km/h 9.0mph /  14.5km/h 55% 0.00in /  0mm 680.0 W/m2
09:49 76.5 °F /  24.7 °C 59.5 °F /  15.3 °C 29.84in /  1010.4hPa Calm   6.0mph /  9.7km/h 56% 0.00in /  0mm 705.0 W/m2
09:55 77.4 °F /  25.2 °C 58.8 °F /  14.9 °C 29.84in /  1010.4hPa ENE 4.9mph /  7.9km/h 11.0mph /  17.7km/h 53% 0.00in /  0mm 724.0 W/m2
10:00 77.9 °F /  25.5 °C 58.8 °F /  14.9 °C 29.84in /  1010.4hPa NNE 4.9mph /  7.9km/h 8.0mph /  12.9km/h 52% 0.00in /  0mm 747.0 W/m2
10:05 78.4 °F /  25.8 °C 58.3 °F /  14.6 °C 29.83in /  1010hPa NE 6.9mph /  11.1km/h 9.0mph /  14.5km/h 50% 0.00in /  0mm 744.0 W/m2
10:10 78.8 °F /  26 °C 59.2 °F /  15.1 °C 29.83in /  1010hPa ESE 2.0mph /  3.2km/h 5.0mph /  8km/h 51% 0.00in /  0mm 756.0 W/m2
10:15 79.2 °F /  26.2 °C 59.0 °F /  15 °C 29.83in /  1010hPa NNE 4.9mph /  7.9km/h 9.0mph /  14.5km/h 50% 0.00in /  0mm 775.0 W/m2
10:21 79.7 °F /  26.5 °C 58.3 °F /  14.6 °C 29.84in /  1010.4hPa East 6.9mph /  11.1km/h 11.0mph /  17.7km/h 48% 0.00in /  0mm 795.0 W/m2
10:26 79.9 °F /  26.6 °C 57.9 °F /  14.4 °C 29.83in /  1010hPa NE 4.0mph /  6.4km/h 8.0mph /  12.9km/h 47% 0.00in /  0mm 807.0 W/m2
10:31 80.2 °F /  26.8 °C 58.1 °F /  14.5 °C 29.84in /  1010.4hPa ENE 8.1mph /  13km/h 8.1mph /  13km/h 47% 0.00in /  0mm 824.0 W/m2
10:36 80.4 °F /  26.9 °C 57.7 °F /  14.3 °C 29.84in /  1010.4hPa NNE 4.0mph /  6.4km/h 5.0mph /  8km/h 46% 0.00in /  0mm 837.0 W/m2
10:42 81.0 °F /  27.2 °C 57.0 °F /  13.9 °C 29.84in /  1010.4hPa East 4.9mph /  7.9km/h 8.0mph /  12.9km/h 44% 0.00in /  0mm 853.0 W/m2
10:47 81.1 °F /  27.3 °C 57.2 °F /  14 °C 29.84in /  1010.4hPa ESE 4.0mph /  6.4km/h 7.0mph /  11.3km/h 44% 0.00in /  0mm 882.0 W/m2
10:52 81.3 °F /  27.4 °C 57.4 °F /  14.1 °C 29.84in /  1010.4hPa SE 4.9mph /  7.9km/h 8.0mph /  12.9km/h 44% 0.00in /  0mm 888.0 W/m2
10:57 81.7 °F /  27.6 °C 57.6 °F /  14.2 °C 29.83in /  1010hPa ENE 6.9mph /  11.1km/h 8.0mph /  12.9km/h 44% 0.00in /  0mm 898.0 W/m2
11:02 82.0 °F /  27.8 °C 57.4 °F /  14.1 °C 29.83in /  1010hPa North 2.0mph /  3.2km/h 9.0mph /  14.5km/h 43% 0.00in /  0mm 923.0 W/m2
11:09 82.4 °F /  28 °C 57.0 °F /  13.9 °C 29.84in /  1010.4hPa ENE 4.9mph /  7.9km/h 7.0mph /  11.3km/h 42% 0.00in /  0mm 942.0 W/m2
11:15 82.9 °F /  28.3 °C 58.1 °F /  14.5 °C 29.83in /  1010hPa NNE 0.9mph /  1.4km/h 6.0mph /  9.7km/h 43% 0.00in /  0mm 972.0 W/m2
11:20 83.1 °F /  28.4 °C 57.0 °F /  13.9 °C 29.83in /  1010hPa NNW 2.0mph /  3.2km/h 5.0mph /  8km/h 41% 0.00in /  0mm 1042.0 W/m2
11:25 83.7 °F /  28.7 °C 57.4 °F /  14.1 °C 29.83in /  1010hPa SE 4.0mph /  6.4km/h 10.0mph /  16.1km/h 41% 0.00in /  0mm 1067.0 W/m2
11:30 83.8 °F /  28.8 °C 57.0 °F /  13.9 °C 29.83in /  1010hPa ENE 2.9mph /  4.7km/h 7.0mph /  11.3km/h 40% 0.00in /  0mm 1095.0 W/m2
11:35 84.0 °F /  28.9 °C 57.0 °F /  13.9 °C 29.83in /  1010hPa NNW 0.9mph /  1.4km/h 6.0mph /  9.7km/h 40% 0.00in /  0mm 1078.0 W/m2
11:40 84.2 °F /  29 °C 56.5 °F /  13.6 °C 29.83in /  1010hPa ESE 2.9mph /  4.7km/h 6.0mph /  9.7km/h 39% 0.00in /  0mm 167.0 W/m2
11:46 83.3 °F /  28.5 °C 56.5 °F /  13.6 °C 29.83in /  1010hPa Calm   6.0mph /  9.7km/h 40% 0.00in /  0mm 204.0 W/m2
11:51 82.6 °F /  28.1 °C 57.2 °F /  14 °C 29.83in /  1010hPa ESE 2.0mph /  3.2km/h 5.0mph /  8km/h 42% 0.00in /  0mm 239.0 W/m2
11:56 82.0 °F /  27.8 °C 57.4 °F /  14.1 °C 29.82in /  1009.7hPa SE 0.9mph /  1.4km/h 6.0mph /  9.7km/h 43% 0.00in /  0mm 1238.0 W/m2
12:01 82.6 °F /  28.1 °C 57.2 °F /  14 °C 29.82in /  1009.7hPa NNE 6.9mph /  11.1km/h 8.0mph /  12.9km/h 42% 0.00in /  0mm 1238.0 W/m2
12:06 82.8 °F /  28.2 °C 56.7 °F /  13.7 °C 29.82in /  1009.7hPa NE 0.9mph /  1.4km/h 5.0mph /  8km/h 41% 0.00in /  0mm 183.0 W/m2
12:11 82.4 °F /  28 °C 56.3 °F /  13.5 °C 29.82in /  1009.7hPa NE 0.9mph /  1.4km/h 5.0mph /  8km/h 41% 0.00in /  0mm 188.0 W/m2
12:16 81.9 °F /  27.7 °C 57.2 °F /  14 °C 29.82in /  1009.7hPa SE 0.9mph /  1.4km/h 3.0mph /  4.8km/h 43% 0.00in /  0mm 206.0 W/m2
12:21 81.7 °F /  27.6 °C 57.0 °F /  13.9 °C 29.82in /  1009.7hPa North 2.0mph /  3.2km/h 4.0mph /  6.4km/h 43% 0.00in /  0mm 229.0 W/m2
12:26 81.3 °F /  27.4 °C 56.1 °F /  13.4 °C 29.82in /  1009.7hPa Calm   8.0mph /  12.9km/h 42% 0.00in /  0mm 255.0 W/m2
12:31 81.1 °F /  27.3 °C 55.9 °F /  13.3 °C 29.82in /  1009.7hPa NNW 0.9mph /  1.4km/h 6.0mph /  9.7km/h 42% 0.00in /  0mm 232.0 W/m2
12:34 81.1 °F /  27.3 °C 56.5 °F /  13.6 °C 29.82in /  1009.7hPa SE 0.9mph /  1.4km/h 5.0mph /  8km/h 43% 0.00in /  0mm 265.0 W/m2
12:39 81.1 °F /  27.3 °C 56.5 °F /  13.6 °C 29.82in /  1009.7hPa Calm   1.0mph /  1.6km/h 43% 0.00in /  0mm 388.0 W/m2
12:45 81.5 °F /  27.5 °C 56.8 °F /  13.8 °C 29.81in /  1009.4hPa SSW 0.9mph /  1.4km/h 3.0mph /  4.8km/h 43% 0.00in /  0mm 1301.0 W/m2
12:51 82.2 °F /  27.9 °C 56.1 °F /  13.4 °C 29.81in /  1009.4hPa Calm   6.0mph /  9.7km/h 41% 0.00in /  0mm 236.0 W/m2
12:56 82.6 °F /  28.1 °C 55.8 °F /  13.2 °C 29.81in /  1009.4hPa NW 0.9mph /  1.4km/h 7.0mph /  11.3km/h 40% 0.00in /  0mm 274.0 W/m2
13:02 82.6 °F /  28.1 °C 55.0 °F /  12.8 °C 29.81in /  1009.4hPa Calm   4.0mph /  6.4km/h 39% 0.00in /  0mm 793.0 W/m2
13:07 82.8 °F /  28.2 °C 55.9 °F /  13.3 °C 29.81in /  1009.4hPa West 0.9mph /  1.4km/h 1.0mph /  1.6km/h 40% 0.00in /  0mm 381.0 W/m2
13:12 82.8 °F /  28.2 °C 56.7 °F /  13.7 °C 29.80in /  1009hPa WSW 0.9mph /  1.4km/h 2.0mph /  3.2km/h 41% 0.00in /  0mm 325.0 W/m2
13:18 82.9 °F /  28.3 °C 56.1 °F /  13.4 °C 29.80in /  1009hPa SW 2.0mph /  3.2km/h 3.0mph /  4.8km/h 40% 0.00in /  0mm 1290.0 W/m2
13:23 83.5 °F /  28.6 °C 56.7 °F /  13.7 °C 29.80in /  1009hPa South 0.9mph /  1.4km/h 5.0mph /  8km/h 40% 0.00in /  0mm 315.0 W/m2
13:28 83.5 °F /  28.6 °C 55.9 °F /  13.3 °C 29.80in /  1009hPa SSE 0.9mph /  1.4km/h 2.0mph /  3.2km/h 39% 0.00in /  0mm 381.0 W/m2
13:34 83.7 °F /  28.7 °C 56.1 °F /  13.4 °C 29.79in /  1008.7hPa NNW 2.9mph /  4.7km/h 3.0mph /  4.8km/h 39% 0.00in /  0mm 1322.0 W/m2
13:39 84.7 °F /  29.3 °C 56.3 °F /  13.5 °C 29.79in /  1008.7hPa NNW 6.9mph /  11.1km/h 7.0mph /  11.3km/h 38% 0.00in /  0mm 1281.0 W/m2
13:45 85.8 °F /  29.9 °C 55.8 °F /  13.2 °C 29.79in /  1008.7hPa WNW 4.0mph /  6.4km/h 8.0mph /  12.9km/h 36% 0.00in /  0mm 1216.0 W/m2
13:50 87.1 °F /  30.6 °C 55.2 °F /  12.9 °C 29.79in /  1008.7hPa East 2.0mph /  3.2km/h 6.0mph /  9.7km/h 34% 0.00in /  0mm 1190.0 W/m2
13:55 87.3 °F /  30.7 °C 57.0 °F /  13.9 °C 29.79in /  1008.7hPa North 4.9mph /  7.9km/h 6.0mph /  9.7km/h 36% 0.00in /  0mm 1169.0 W/m2
14:00 88.0 °F /  31.1 °C 56.8 °F /  13.8 °C 29.78in /  1008.4hPa SW 0.9mph /  1.4km/h 2.0mph /  3.2km/h 35% 0.00in /  0mm 1183.0 W/m2
14:06 87.8 °F /  31 °C 56.7 °F /  13.7 °C 29.78in /  1008.4hPa Calm   3.0mph /  4.8km/h 35% 0.00in /  0mm 1172.0 W/m2
14:11 88.2 °F /  31.2 °C 57.0 °F /  13.9 °C 29.77in /  1008hPa ENE 2.9mph /  4.7km/h 6.0mph /  9.7km/h 35% 0.00in /  0mm 1144.0 W/m2
14:17 88.7 °F /  31.5 °C 57.6 °F /  14.2 °C 29.76in /  1007.7hPa WNW 2.9mph /  4.7km/h 8.0mph /  12.9km/h 35% 0.00in /  0mm 1179.0 W/m2
14:21 89.2 °F /  31.8 °C 57.2 °F /  14 °C 29.76in /  1007.7hPa North 4.9mph /  7.9km/h 10.0mph /  16.1km/h 34% 0.00in /  0mm 311.0 W/m2
14:27 88.9 °F /  31.6 °C 56.8 °F /  13.8 °C 29.76in /  1007.7hPa North 2.9mph /  4.7km/h 7.0mph /  11.3km/h 34% 0.00in /  0mm 1141.0 W/m2
14:33 88.3 °F /  31.3 °C 56.5 °F /  13.6 °C 29.75in /  1007.3hPa Calm   4.0mph /  6.4km/h 34% 0.00in /  0mm 225.0 W/m2
14:37 88.0 °F /  31.1 °C 56.1 °F /  13.4 °C 29.75in /  1007.3hPa North 4.9mph /  7.9km/h 7.0mph /  11.3km/h 34% 0.00in /  0mm 264.0 W/m2
14:43 88.2 °F /  31.2 °C 56.3 °F /  13.5 °C 29.75in /  1007.3hPa NE 4.0mph /  6.4km/h 7.0mph /  11.3km/h 34% 0.00in /  0mm 1078.0 W/m2
14:49 88.9 °F /  31.6 °C 56.1 °F /  13.4 °C 29.74in /  1007hPa NNE 0.9mph /  1.4km/h 9.0mph /  14.5km/h 33% 0.00in /  0mm 1097.0 W/m2
14:54 89.1 °F /  31.7 °C 57.0 °F /  13.9 °C 29.74in /  1007hPa Calm   5.0mph /  8km/h 34% 0.00in /  0mm 1134.0 W/m2
14:59 89.4 °F /  31.9 °C 56.5 °F /  13.6 °C 29.74in /  1007hPa NW 6.0mph /  9.7km/h 7.0mph /  11.3km/h 33% 0.00in /  0mm 1106.0 W/m2
15:04 89.8 °F /  32.1 °C 55.9 °F /  13.3 °C 29.73in /  1006.7hPa Calm   3.0mph /  4.8km/h 32% 0.00in /  0mm 355.0 W/m2
15:09 89.8 °F /  32.1 °C 55.0 °F /  12.8 °C 29.73in /  1006.7hPa NW 2.9mph /  4.7km/h 6.0mph /  9.7km/h 31% 0.00in /  0mm 176.0 W/m2
15:14 89.4 °F /  31.9 °C 55.8 °F /  13.2 °C 29.73in /  1006.7hPa North 4.9mph /  7.9km/h 6.0mph /  9.7km/h 32% 0.00in /  0mm 229.0 W/m2
15:19 88.9 °F /  31.6 °C 55.2 °F /  12.9 °C 29.73in /  1006.7hPa NNW 4.9mph /  7.9km/h 6.0mph /  9.7km/h 32% 0.00in /  0mm 137.0 W/m2
15:24 88.2 °F /  31.2 °C 54.5 °F /  12.5 °C 29.73in /  1006.7hPa Calm   2.0mph /  3.2km/h 32% 0.00in /  0mm 88.0 W/m2
15:30 86.4 °F /  30.2 °C 56.3 °F /  13.5 °C 29.73in /  1006.7hPa SSW 4.9mph /  7.9km/h 10.0mph /  16.1km/h 36% 0.00in /  0mm 56.0 W/m2
15:35 83.7 °F /  28.7 °C 58.1 °F /  14.5 °C 29.73in /  1006.7hPa SSE 4.0mph /  6.4km/h 16.0mph /  25.7km/h 42% 0.00in /  0mm 56.0 W/m2
15:40 80.1 °F /  26.7 °C 61.3 °F /  16.3 °C 29.74in /  1007hPa South 2.9mph /  4.7km/h 16.0mph /  25.7km/h 53% 0.01in /  0.25mm 46.0 W/m2
15:45 77.2 °F /  25.1 °C 60.3 °F /  15.7 °C 29.73in /  1006.7hPa SE 6.0mph /  9.7km/h 10.0mph /  16.1km/h 56% 0.01in /  0.25mm 54.0 W/m2
15:50 75.7 °F /  24.3 °C 59.9 °F /  15.5 °C 29.73in /  1006.7hPa SSW 0.9mph /  1.4km/h 8.0mph /  12.9km/h 58% 0.01in /  0.25mm 67.0 W/m2
15:55 75.0 °F /  23.9 °C 58.8 °F /  14.9 °C 29.72in /  1006.3hPa SSE 4.9mph /  7.9km/h 7.0mph /  11.3km/h 57% 0.01in /  0.25mm 83.0 W/m2
16:00 74.8 °F /  23.8 °C 60.4 °F /  15.8 °C 29.73in /  1006.7hPa ESE 8.9mph /  14.3km/h 12.0mph /  19.3km/h 61% 0.01in /  0.25mm 88.0 W/m2
16:05 74.1 °F /  23.4 °C 59.4 °F /  15.2 °C 29.72in /  1006.3hPa East 4.9mph /  7.9km/h 9.0mph /  14.5km/h 60% 0.01in /  0.25mm 81.0 W/m2
16:11 73.6 °F /  23.1 °C 58.8 °F /  14.9 °C 29.72in /  1006.3hPa Calm   7.0mph /  11.3km/h 60% 0.01in /  0.25mm 76.0 W/m2
16:16 73.2 °F /  22.9 °C 59.9 °F /  15.5 °C 29.72in /  1006.3hPa ESE 0.9mph /  1.4km/h 3.0mph /  4.8km/h 63% 0.01in /  0.25mm 79.0 W/m2
16:21 73.0 °F /  22.8 °C 59.7 °F /  15.4 °C 29.71in /  1006hPa ENE 0.9mph /  1.4km/h 2.0mph /  3.2km/h 63% 0.01in /  0.25mm 83.0 W/m2
16:26 72.9 °F /  22.7 °C 59.5 °F /  15.3 °C 29.72in /  1006.3hPa Calm   2.0mph /  3.2km/h 63% 0.01in /  0.25mm 56.0 W/m2
16:31 72.7 °F /  22.6 °C 60.3 °F /  15.7 °C 29.73in /  1006.7hPa Calm   1.0mph /  1.6km/h 65% 0.01in /  0.25mm 47.0 W/m2
16:36 72.5 °F /  22.5 °C 58.3 °F /  14.6 °C 29.73in /  1006.7hPa WNW 2.9mph /  4.7km/h 5.0mph /  8km/h 61% 0.01in /  0.25mm 63.0 W/m2
16:41 72.7 °F /  22.6 °C 57.9 °F /  14.4 °C 29.73in /  1006.7hPa West 4.9mph /  7.9km/h 6.0mph /  9.7km/h 60% 0.00in /  0mm 70.0 W/m2
16:46 73.0 °F /  22.8 °C 59.2 °F /  15.1 °C 29.74in /  1007hPa NNW 0.9mph /  1.4km/h 7.0mph /  11.3km/h 62% 0.00in /  0mm 51.0 W/m2
16:51 73.2 °F /  22.9 °C 59.4 °F /  15.2 °C 29.74in /  1007hPa Calm   3.0mph /  4.8km/h 62% 0.00in /  0mm 49.0 W/m2
16:56 73.2 °F /  22.9 °C 59.4 °F /  15.2 °C 29.74in /  1007hPa Calm   1.0mph /  1.6km/h 62% 0.00in /  0mm 46.0 W/m2
17:01 73.0 °F /  22.8 °C 58.3 °F /  14.6 °C 29.74in /  1007hPa NNW 6.0mph /  9.7km/h 6.0mph /  9.7km/h 60% 0.00in /  0mm 44.0 W/m2
17:06 72.9 °F /  22.7 °C 56.7 °F /  13.7 °C 29.73in /  1006.7hPa NW 2.0mph /  3.2km/h 6.0mph /  9.7km/h 57% 0.00in /  0mm 44.0 W/m2
17:12 72.9 °F /  22.7 °C 55.8 °F /  13.2 °C 29.73in /  1006.7hPa Calm   2.0mph /  3.2km/h 55% 0.00in /  0mm 46.0 W/m2
17:17 72.9 °F /  22.7 °C 55.2 °F /  12.9 °C 29.73in /  1006.7hPa Calm   5.0mph /  8km/h 54% 0.00in /  0mm 54.0 W/m2
17:22 73.0 °F /  22.8 °C 54.3 °F /  12.4 °C 29.72in /  1006.3hPa NNW 0.9mph /  1.4km/h 4.0mph /  6.4km/h 52% 0.00in /  0mm 67.0 W/m2
17:27 73.0 °F /  22.8 °C 55.4 °F /  13 °C 29.72in /  1006.3hPa Calm   1.0mph /  1.6km/h 54% 0.00in /  0mm 88.0 W/m2
17:32 73.2 °F /  22.9 °C 55.6 °F /  13.1 °C 29.72in /  1006.3hPa Calm   2.0mph /  3.2km/h 54% 0.00in /  0mm 135.0 W/m2
17:37 73.6 °F /  23.1 °C 56.8 °F /  13.8 °C 29.72in /  1006.3hPa East 2.0mph /  3.2km/h 4.0mph /  6.4km/h 56% 0.00in /  0mm 151.0 W/m2
17:42 73.8 °F /  23.2 °C 59.0 °F /  15 °C 29.71in /  1006hPa SE 2.0mph /  3.2km/h 5.0mph /  8km/h 60% 0.00in /  0mm 193.0 W/m2
17:48 73.8 °F /  23.2 °C 58.5 °F /  14.7 °C 29.71in /  1006hPa East 0.9mph /  1.4km/h 3.0mph /  4.8km/h 59% 0.00in /  0mm 185.0 W/m2
17:53 73.9 °F /  23.3 °C 57.2 °F /  14 °C 29.71in /  1006hPa SE 2.0mph /  3.2km/h 4.0mph /  6.4km/h 56% 0.00in /  0mm 162.0 W/m2
17:58 73.9 °F /  23.3 °C 57.2 °F /  14 °C 29.71in /  1006hPa ESE 4.0mph /  6.4km/h 4.0mph /  6.4km/h 56% 0.00in /  0mm 137.0 W/m2
18:03 74.1 °F /  23.4 °C 57.4 °F /  14.1 °C 29.70in /  1005.6hPa Calm   5.0mph /  8km/h 56% 0.00in /  0mm 118.0 W/m2
18:08 74.1 °F /  23.4 °C 59.4 °F /  15.2 °C 29.70in /  1005.6hPa SSE 4.0mph /  6.4km/h 5.0mph /  8km/h 60% 0.00in /  0mm 102.0 W/m2
18:14 73.9 °F /  23.3 °C 58.3 °F /  14.6 °C 29.70in /  1005.6hPa SE 2.9mph /  4.7km/h 5.0mph /  8km/h 58% 0.00in /  0mm 134.0 W/m2
18:19 74.1 °F /  23.4 °C 57.9 °F /  14.4 °C 29.71in /  1006hPa Calm   5.0mph /  8km/h 57% 0.00in /  0mm 137.0 W/m2
18:24 74.5 °F /  23.6 °C 58.3 °F /  14.6 °C 29.71in /  1006hPa Calm   1.0mph /  1.6km/h 57% 0.00in /  0mm 111.0 W/m2
18:30 74.7 °F /  23.7 °C 57.4 °F /  14.1 °C 29.71in /  1006hPa Calm   1.0mph /  1.6km/h 55% 0.00in /  0mm 139.0 W/m2
18:35 75.0 °F /  23.9 °C 58.3 °F /  14.6 °C 29.71in /  1006hPa SSW 0.9mph /  1.4km/h 2.0mph /  3.2km/h 56% 0.00in /  0mm 137.0 W/m2
18:40 75.4 °F /  24.1 °C 57.6 °F /  14.2 °C 29.71in /  1006hPa Calm   2.0mph /  3.2km/h 54% 0.00in /  0mm 67.0 W/m2
18:45 75.7 °F /  24.3 °C 57.9 °F /  14.4 °C 29.72in /  1006.3hPa SW 2.0mph /  3.2km/h 8.0mph /  12.9km/h 54% 0.00in /  0mm 93.0 W/m2
18:50 75.6 °F /  24.2 °C 57.2 °F /  14 °C 29.72in /  1006.3hPa WSW 4.0mph /  6.4km/h 7.0mph /  11.3km/h 53% 0.00in /  0mm 40.0 W/m2
18:55 75.6 °F /  24.2 °C 56.7 °F /  13.7 °C 29.73in /  1006.7hPa WSW 8.1mph /  13km/h 8.1mph /  13km/h 52% 0.00in /  0mm 40.0 W/m2
19:00 75.2 °F /  24 °C 56.8 °F /  13.8 °C 29.72in /  1006.3hPa West 0.9mph /  1.4km/h 7.0mph /  11.3km/h 53% 0.00in /  0mm 44.0 W/m2
19:05 74.8 °F /  23.8 °C 57.0 °F /  13.9 °C 29.72in /  1006.3hPa SSW 0.9mph /  1.4km/h 3.0mph /  4.8km/h 54% 0.00in /  0mm 35.0 W/m2
19:10 74.7 °F /  23.7 °C 57.4 °F /  14.1 °C 29.73in /  1006.7hPa Calm   3.0mph /  4.8km/h 55% 0.00in /  0mm 30.0 W/m2
19:15 74.5 °F /  23.6 °C 57.2 °F /  14 °C 29.73in /  1006.7hPa South 0.9mph /  1.4km/h 6.0mph /  9.7km/h 55% 0.00in /  0mm 33.0 W/m2
19:20 74.5 °F /  23.6 °C 57.2 °F /  14 °C 29.73in /  1006.7hPa SSE 4.9mph /  7.9km/h 6.0mph /  9.7km/h 55% 0.00in /  0mm 30.0 W/m2
19:25 74.1 °F /  23.4 °C 56.8 °F /  13.8 °C 29.73in /  1006.7hPa South 4.0mph /  6.4km/h 9.0mph /  14.5km/h 55% 0.00in /  0mm 16.0 W/m2
19:30 73.8 °F /  23.2 °C 56.1 °F /  13.4 °C 29.73in /  1006.7hPa SSE 4.9mph /  7.9km/h 10.0mph /  16.1km/h 54% 0.00in /  0mm 11.0 W/m2
19:35 73.6 °F /  23.1 °C 56.5 °F /  13.6 °C 29.73in /  1006.7hPa SSE 6.0mph /  9.7km/h 7.0mph /  11.3km/h 55% 0.00in /  0mm 7.0 W/m2
19:41 73.2 °F /  22.9 °C 55.6 °F /  13.1 °C 29.73in /  1006.7hPa West 2.9mph /  4.7km/h 7.0mph /  11.3km/h 54% 0.00in /  0mm 0.0 W/m2
19:46 73.0 °F /  22.8 °C 55.4 °F /  13 °C 29.74in /  1007hPa SW 14.1mph /  22.7km/h 14.1mph /  22.7km/h 54% 0.00in /  0mm 0.0 W/m2
19:51 72.9 °F /  22.7 °C 55.8 °F /  13.2 °C 29.74in /  1007hPa SE 6.9mph /  11.1km/h 15.0mph /  24.1km/h 55% 0.00in /  0mm 0.0 W/m2
19:56 72.9 °F /  22.7 °C 56.3 °F /  13.5 °C 29.74in /  1007hPa East 0.9mph /  1.4km/h 9.0mph /  14.5km/h 56% 0.00in /  0mm 0.0 W/m2
20:01 72.5 °F /  22.5 °C 55.4 °F /  13 °C 29.74in /  1007hPa South 6.0mph /  9.7km/h 11.0mph /  17.7km/h 55% 0.00in /  0mm 0.0 W/m2
20:06 72.0 °F /  22.2 °C 55.4 °F /  13 °C 29.74in /  1007hPa South 6.0mph /  9.7km/h 14.0mph /  22.5km/h 56% 0.00in /  0mm 0.0 W/m2
20:11 71.4 °F /  21.9 °C 54.9 °F /  12.7 °C 29.73in /  1006.7hPa SSE 13.0mph /  20.9km/h 16.0mph /  25.7km/h 56% 0.00in /  0mm 0.0 W/m2
20:16 71.2 °F /  21.8 °C 54.3 °F /  12.4 °C 29.73in /  1006.7hPa ESE 2.9mph /  4.7km/h 8.0mph /  12.9km/h 55% 0.00in /  0mm 0.0 W/m2
20:21 71.1 °F /  21.7 °C 54.1 °F /  12.3 °C 29.74in /  1007hPa Calm   2.0mph /  3.2km/h 55% 0.00in /  0mm 0.0 W/m2
20:27 70.9 °F /  21.6 °C 54.0 °F /  12.2 °C 29.74in /  1007hPa Calm     55% 0.00in /  0mm 0.0 W/m2
20:33 70.9 °F /  21.6 °C 54.0 °F /  12.2 °C 29.74in /  1007hPa South 3.0mph /  4.8km/h 3.0mph /  4.8km/h 55% 0.00in /  0mm 0.0 W/m2
20:38 70.9 °F /  21.6 °C 53.4 °F /  11.9 °C 29.73in /  1006.7hPa Calm   2.0mph /  3.2km/h 54% 0.00in /  0mm 0.0 W/m2
20:43 70.9 °F /  21.6 °C 54.0 °F /  12.2 °C 29.73in /  1006.7hPa SSW 0.9mph /  1.4km/h 4.0mph /  6.4km/h 55% 0.00in /  0mm 0.0 W/m2
20:48 70.9 °F /  21.6 °C 54.0 °F /  12.2 °C 29.74in /  1007hPa Calm   1.0mph /  1.6km/h 55% 0.00in /  0mm 0.0 W/m2
20:53 70.9 °F /  21.6 °C 54.3 °F /  12.4 °C 29.74in /  1007hPa South 0.9mph /  1.4km/h 1.0mph /  1.6km/h 56% 0.00in /  0mm 0.0 W/m2
20:58 70.9 °F /  21.6 °C 54.3 °F /  12.4 °C 29.74in /  1007hPa Calm   1.0mph /  1.6km/h 56% 0.00in /  0mm 0.0 W/m2
21:03 70.7 °F /  21.5 °C 53.8 °F /  12.1 °C 29.74in /  1007hPa Calm     55% 0.00in /  0mm 0.0 W/m2
21:08 70.5 °F /  21.4 °C 54.1 °F /  12.3 °C 29.75in /  1007.3hPa Calm   1.0mph /  1.6km/h 56% 0.00in /  0mm 0.0 W/m2
21:14 70.5 °F /  21.4 °C 54.1 °F /  12.3 °C 29.75in /  1007.3hPa Calm   1.0mph /  1.6km/h 56% 0.00in /  0mm 0.0 W/m2
21:19 70.3 °F /  21.3 °C 54.3 °F /  12.4 °C 29.75in /  1007.3hPa Calm     57% 0.00in /  0mm 0.0 W/m2
21:24 70.3 °F /  21.3 °C 54.9 °F /  12.7 °C 29.75in /  1007.3hPa NE 0.9mph /  1.4km/h 1.0mph /  1.6km/h 58% 0.00in /  0mm 0.0 W/m2
21:29 70.2 °F /  21.2 °C 55.2 °F /  12.9 °C 29.75in /  1007.3hPa North 2.0mph /  3.2km/h 2.0mph /  3.2km/h 59% 0.00in /  0mm 0.0 W/m2
21:34 70.2 °F /  21.2 °C 55.6 °F /  13.1 °C 29.75in /  1007.3hPa Calm   2.0mph /  3.2km/h 60% 0.00in /  0mm 0.0 W/m2
21:39 70.0 °F /  21.1 °C 55.4 °F /  13 °C 29.75in /  1007.3hPa Calm     60% 0.00in /  0mm 0.0 W/m2
21:44 70.0 °F /  21.1 °C 55.4 °F /  13 °C 29.75in /  1007.3hPa Calm     60% 0.00in /  0mm 0.0 W/m2
21:49 70.0 °F /  21.1 °C 55.9 °F /  13.3 °C 29.76in /  1007.7hPa Calm     61% 0.00in /  0mm 0.0 W/m2
21:54 70.0 °F /  21.1 °C 55.9 °F /  13.3 °C 29.77in /  1008hPa Calm   1.0mph /  1.6km/h 61% 0.00in /  0mm 0.0 W/m2
22:00 70.2 °F /  21.2 °C 57.0 °F /  13.9 °C 29.76in /  1007.7hPa Calm   3.0mph /  4.8km/h 63% 0.00in /  0mm 0.0 W/m2
22:05 70.2 °F /  21.2 °C 56.5 °F /  13.6 °C 29.77in /  1008hPa Calm     62% 0.00in /  0mm 0.0 W/m2
22:10 70.2 °F /  21.2 °C 57.0 °F /  13.9 °C 29.77in /  1008hPa Calm   3.0mph /  4.8km/h 63% 0.00in /  0mm 0.0 W/m2
22:15 70.0 °F /  21.1 °C 56.8 °F /  13.8 °C 29.77in /  1008hPa Calm   1.0mph /  1.6km/h 63% 0.00in /  0mm 0.0 W/m2
22:20 70.0 °F /  21.1 °C 57.2 °F /  14 °C 29.77in /  1008hPa Calm   2.0mph /  3.2km/h 64% 0.00in /  0mm 0.0 W/m2
22:25 70.0 °F /  21.1 °C 57.7 °F /  14.3 °C 29.77in /  1008hPa Calm   1.0mph /  1.6km/h 65% 0.00in /  0mm 0.0 W/m2
22:30 70.0 °F /  21.1 °C 58.1 °F /  14.5 °C 29.77in /  1008hPa Calm     66% 0.00in /  0mm 0.0 W/m2
22:35 70.0 °F /  21.1 °C 58.1 °F /  14.5 °C 29.77in /  1008hPa Calm   1.0mph /  1.6km/h 66% 0.00in /  0mm 0.0 W/m2
22:41 70.0 °F /  21.1 °C 58.5 °F /  14.7 °C 29.77in /  1008hPa Calm   1.0mph /  1.6km/h 67% 0.00in /  0mm 0.0 W/m2
22:46 69.8 °F /  21 °C 58.3 °F /  14.6 °C 29.77in /  1008hPa Calm     67% 0.00in /  0mm 0.0 W/m2
22:51 69.6 °F /  20.9 °C 58.6 °F /  14.8 °C 29.77in /  1008hPa SSE 0.9mph /  1.4km/h 3.0mph /  4.8km/h 68% 0.00in /  0mm 0.0 W/m2
22:57 69.6 °F /  20.9 °C 58.6 °F /  14.8 °C 29.77in /  1008hPa SSE 0.9mph /  1.4km/h 2.0mph /  3.2km/h 68% 0.00in /  0mm 0.0 W/m2
23:03 69.4 °F /  20.8 °C 58.5 °F /  14.7 °C 29.77in /  1008hPa Calm     68% 0.00in /  0mm 0.0 W/m2
23:08 69.4 °F /  20.8 °C 58.5 °F /  14.7 °C 29.78in /  1008.4hPa Calm     68% 0.00in /  0mm 0.0 W/m2
23:13 69.4 °F /  20.8 °C 57.9 °F /  14.4 °C 29.78in /  1008.4hPa Calm     67% 0.00in /  0mm 0.0 W/m2
23:19 69.4 °F /  20.8 °C 57.9 °F /  14.4 °C 29.78in /  1008.4hPa Calm     67% 0.00in /  0mm 0.0 W/m2
23:24 69.4 °F /  20.8 °C 57.6 °F /  14.2 °C 29.77in /  1008hPa Calm   2.0mph /  3.2km/h 66% 0.00in /  0mm 0.0 W/m2
23:29 69.4 °F /  20.8 °C 57.2 °F /  14 °C 29.77in /  1008hPa Calm   1.0mph /  1.6km/h 65% 0.00in /  0mm 0.0 W/m2
23:34 69.4 °F /  20.8 °C 57.6 °F /  14.2 °C 29.77in /  1008hPa Calm     66% 0.00in /  0mm 0.0 W/m2
23:39 69.4 °F /  20.8 °C 56.7 °F /  13.7 °C 29.77in /  1008hPa Calm     64% 0.00in /  0mm 0.0 W/m2
23:44 69.6 °F /  20.9 °C 57.4 °F /  14.1 °C 29.77in /  1008hPa Calm   1.0mph /  1.6km/h 65% 0.00in /  0mm 0.0 W/m2
23:49 69.6 °F /  20.9 °C 57.7 °F /  14.3 °C 29.77in /  1008hPa Calm   1.0mph /  1.6km/h 66% 0.00in /  0mm 0.0 W/m2
23:54 69.6 °F /  20.9 °C 57.7 °F /  14.3 °C 29.77in /  1008hPa Calm     66% 0.00in /  0mm 0.0 W/m2
Olympia, Windhoek, Namibia
Compliments of Weather Underground - 3.25 mb